X  Tanca Dades meteorològiques de l'aviació METAR     EDDK Cologne Bonn Airport
Temperatura
7°C Temperatura
3°C Rosada
76% Humitat



Vent
2 MPH
3 KM/H
1 M/S
2 NUS



90°
E
Condicions actuals

Sense núvols Sense núvols
Pressió 1021 (hPa) - 30.15 (inHg)
Visibilitat 6 (milla) - 9.7 (km)
Aeroport
Codi aeroport EDDK

Ubicació: Cologne Bonn Airport
Distància: 56 (mi)

Metar:
EDDK 281750Z AUTO 09002KT CAVOK 07/03 Q1021 NOSIG

Temps: 2024-02-28 18:50 CET